createdAt,value
2023-05-05T00:01:20.457Z,68.50
2023-05-05T00:03:28.242Z,68.30
2023-05-05T00:05:35.022Z,68.20
2023-05-05T00:07:42.418Z,67.90
2023-05-05T00:09:49.180Z,67.90
2023-05-05T00:11:56.364Z,67.80
2023-05-05T00:14:03.137Z,67.80
2023-05-05T00:16:10.673Z,67.50
2023-05-05T00:18:20.267Z,67.20
2023-05-05T00:20:27.442Z,67.10
2023-05-05T00:22:34.272Z,66.90
2023-05-05T00:24:41.500Z,66.70
2023-05-05T00:26:48.281Z,66.40
2023-05-05T00:28:55.304Z,66.20
2023-05-05T00:31:02.680Z,66.20
2023-05-05T00:33:10.339Z,66.10
2023-05-05T00:35:19.205Z,66.10
2023-05-05T00:37:26.237Z,65.90
2023-05-05T00:39:33.162Z,65.80
2023-05-05T00:41:40.277Z,65.80
2023-05-05T00:43:47.014Z,65.70
2023-05-05T00:46:01.833Z,65.50
2023-05-05T00:48:10.321Z,65.40
2023-05-05T00:50:25.346Z,65.20
2023-05-05T00:52:34.050Z,65.00
2023-05-05T00:54:41.453Z,65.00
2023-05-05T00:56:49.146Z,64.90
2023-05-05T00:58:56.229Z,64.60
2023-05-05T01:01:03.053Z,64.40
2023-05-05T01:03:10.344Z,64.10
2023-05-05T01:05:20.225Z,64.10
2023-05-05T01:07:39.389Z,63.90
2023-05-05T01:10:07.294Z,63.60
2023-05-05T01:12:27.869Z,63.70
2023-05-05T01:14:42.406Z,63.40
2023-05-05T01:16:59.882Z,63.30
2023-05-05T01:19:17.977Z,63.10
2023-05-05T01:21:32.570Z,63.00
2023-05-05T01:24:09.757Z,62.90
2023-05-05T01:26:32.092Z,62.90
2023-05-05T01:29:23.926Z,63.10
2023-05-05T01:31:52.435Z,63.30
2023-05-05T01:34:03.789Z,62.80
2023-05-05T01:36:12.406Z,62.50
2023-05-05T01:38:22.752Z,62.00
2023-05-05T01:40:31.368Z,62.20
2023-05-05T01:42:41.079Z,62.30
2023-05-05T01:47:24.615Z,61.90
2023-05-05T01:49:32.504Z,61.50
2023-05-05T01:51:39.941Z,61.30
2023-05-05T01:53:48.146Z,61.10
2023-05-05T01:55:57.683Z,60.50
2023-05-05T01:58:06.604Z,60.40
2023-05-05T02:00:15.048Z,60.40
2023-05-05T02:02:25.505Z,60.40
2023-05-05T02:04:35.676Z,60.30
2023-05-05T02:06:44.367Z,60.20
2023-05-05T02:08:51.986Z,59.80
2023-05-05T02:11:00.656Z,59.40
2023-05-05T02:15:43.672Z,58.80
2023-05-05T02:17:53.255Z,58.80
2023-05-05T02:20:04.169Z,58.60
2023-05-05T02:22:11.385Z,58.60
2023-05-05T02:24:18.507Z,58.20
2023-05-05T02:26:27.793Z,58.30
2023-05-05T02:28:41.376Z,57.90
2023-05-05T02:30:51.267Z,57.70
2023-05-05T02:33:09.054Z,57.20
2023-05-05T02:35:18.996Z,56.90
2023-05-05T02:37:28.587Z,57.40
2023-05-05T02:39:44.726Z,57.40
2023-05-05T02:41:57.332Z,56.90
2023-05-05T02:44:08.308Z,56.70
2023-05-05T02:46:16.328Z,56.40
2023-05-05T02:48:28.095Z,56.00
2023-05-05T02:50:38.658Z,55.50
2023-05-05T02:52:58.182Z,55.30
2023-05-05T02:55:06.291Z,54.80
2023-05-05T02:57:22.119Z,54.40
2023-05-05T02:59:48.392Z,53.40
2023-05-05T03:02:09.652Z,54.00
2023-05-05T03:04:25.436Z,53.80
2023-05-05T03:06:45.118Z,54.00
2023-05-05T03:09:02.586Z,54.10
2023-05-05T03:11:15.245Z,53.50
2023-05-05T03:13:27.951Z,53.30
2023-05-05T03:15:42.197Z,52.10
2023-05-05T03:17:51.053Z,51.90
2023-05-05T03:20:05.388Z,51.90
2023-05-05T03:22:16.142Z,52.00
2023-05-05T03:24:25.980Z,52.10
2023-05-05T03:26:49.958Z,51.40
2023-05-05T03:29:00.586Z,51.70
2023-05-05T03:31:10.788Z,51.60
2023-05-05T03:33:20.102Z,51.40
2023-05-05T03:35:29.331Z,50.80
2023-05-05T03:37:36.821Z,50.70
2023-05-05T03:39:44.257Z,50.50
2023-05-05T03:41:52.000Z,50.10
2023-05-05T03:44:00.974Z,50.10
2023-05-05T03:46:08.210Z,50.20
2023-05-05T03:48:15.680Z,49.50
2023-05-05T03:50:23.275Z,49.70
2023-05-05T03:52:32.517Z,50.00
2023-05-05T03:54:40.296Z,49.90
2023-05-05T03:56:47.697Z,50.00
2023-05-05T03:58:54.675Z,50.10
2023-05-05T04:01:02.267Z,49.70
2023-05-05T04:03:09.580Z,49.10
2023-05-05T04:05:17.060Z,49.00
2023-05-05T04:07:24.688Z,48.50
2023-05-05T04:09:34.221Z,48.50
2023-05-05T04:11:40.995Z,47.80
2023-05-05T04:13:50.905Z,48.60
2023-05-05T04:16:00.705Z,48.20
2023-05-05T04:18:08.588Z,46.60
2023-05-05T04:20:15.869Z,46.80
2023-05-05T04:22:23.718Z,47.30
2023-05-05T04:24:30.792Z,47.70
2023-05-05T04:26:40.232Z,47.30
2023-05-05T04:28:47.306Z,46.70
2023-05-05T04:30:55.938Z,47.00
2023-05-05T04:33:03.037Z,47.10
2023-05-05T04:35:11.509Z,46.60
2023-05-05T04:37:26.277Z,46.30
2023-05-05T04:39:33.403Z,45.90
2023-05-05T04:41:41.929Z,46.30
2023-05-05T04:43:49.822Z,46.80
2023-05-05T04:45:57.100Z,46.20
2023-05-05T04:48:08.901Z,45.60
2023-05-05T04:50:16.527Z,45.00
2023-05-05T04:52:23.818Z,45.20
2023-05-05T04:54:31.489Z,45.00
2023-05-05T04:56:38.873Z,44.90
2023-05-05T04:58:47.457Z,44.20
2023-05-05T05:00:55.403Z,44.00
2023-05-05T05:03:02.559Z,43.90
2023-05-05T05:05:10.743Z,43.70
2023-05-05T05:07:17.825Z,44.50
2023-05-05T05:09:24.900Z,44.30
2023-05-05T05:11:32.997Z,44.20
2023-05-05T05:13:40.342Z,45.20
2023-05-05T05:15:49.261Z,46.10
2023-05-05T05:17:56.719Z,46.50
2023-05-05T05:20:06.117Z,47.60
2023-05-05T05:22:14.496Z,46.60
2023-05-05T05:24:22.956Z,45.50
2023-05-05T05:26:30.187Z,45.40
2023-05-05T05:28:37.424Z,44.40
2023-05-05T05:30:44.570Z,44.10
2023-05-05T05:32:53.788Z,42.50
2023-05-05T05:35:01.064Z,42.60
2023-05-05T05:37:08.350Z,42.30
2023-05-05T05:39:15.941Z,42.80
2023-05-05T05:41:23.332Z,42.80
2023-05-05T05:43:30.822Z,42.90
2023-05-05T05:45:38.447Z,42.60
2023-05-05T05:47:47.034Z,42.20
2023-05-05T05:49:56.047Z,41.60
2023-05-05T05:52:03.327Z,41.60
2023-05-05T05:54:10.863Z,41.50
2023-05-05T05:56:18.047Z,41.40
2023-05-05T05:58:26.763Z,42.10
2023-05-05T06:00:34.405Z,41.40
2023-05-05T06:02:46.774Z,41.40
2023-05-05T06:04:58.754Z,41.70
2023-05-05T06:07:05.987Z,41.30
2023-05-05T06:09:13.216Z,41.20
2023-05-05T06:11:20.656Z,40.70
2023-05-05T06:13:28.660Z,40.80
2023-05-05T06:15:35.716Z,40.50
2023-05-05T06:17:44.906Z,40.30
2023-05-05T06:19:53.563Z,40.40
2023-05-05T06:22:03.732Z,40.50
2023-05-05T06:24:11.067Z,40.90
2023-05-05T06:26:18.197Z,41.20
2023-05-05T06:28:25.227Z,41.10
2023-05-05T06:30:32.304Z,41.30
2023-05-05T06:32:39.716Z,40.70
2023-05-05T06:34:48.460Z,40.70
2023-05-05T06:36:55.837Z,40.70
2023-05-05T06:39:04.621Z,40.30
2023-05-05T06:41:11.915Z,40.50
2023-05-05T06:43:18.794Z,40.40
2023-05-05T06:45:32.642Z,40.50
2023-05-05T06:47:39.572Z,40.60
2023-05-05T06:49:47.082Z,40.90
2023-05-05T06:51:53.957Z,41.10
2023-05-05T06:54:03.030Z,41.10
2023-05-05T06:56:10.527Z,40.70
2023-05-05T06:58:28.093Z,40.10
2023-05-05T07:00:35.165Z,40.60
2023-05-05T07:02:42.643Z,41.50
2023-05-05T07:04:49.486Z,41.70
2023-05-05T07:06:56.962Z,42.10
2023-05-05T07:09:05.750Z,41.80
2023-05-05T07:11:13.032Z,42.00
2023-05-05T07:13:20.315Z,42.10
2023-05-05T07:15:29.193Z,42.30
2023-05-05T07:17:36.297Z,42.00
2023-05-05T07:19:43.597Z,42.10
2023-05-05T07:21:50.793Z,42.60
2023-05-05T07:23:57.760Z,43.40
2023-05-05T07:26:06.588Z,43.20
2023-05-05T07:28:14.069Z,42.90
2023-05-05T07:30:21.041Z,42.50
2023-05-05T07:32:28.768Z,42.70
2023-05-05T07:34:35.561Z,42.80
2023-05-05T07:36:42.595Z,42.60
2023-05-05T07:38:49.409Z,42.20
2023-05-05T07:40:56.547Z,42.30
2023-05-05T07:43:05.992Z,42.00
2023-05-05T07:45:14.383Z,41.20
2023-05-05T07:47:21.510Z,41.10
2023-05-05T07:49:29.570Z,41.40
2023-05-05T07:51:36.646Z,41.30
2023-05-05T07:53:44.495Z,41.30
2023-05-05T07:55:51.352Z,41.40
2023-05-05T07:57:58.349Z,41.40
2023-05-05T08:00:07.453Z,41.60
2023-05-05T08:02:20.436Z,41.40
2023-05-05T08:04:27.345Z,42.10
2023-05-05T08:06:35.056Z,41.90
2023-05-05T08:08:42.136Z,41.50
2023-05-05T08:10:49.367Z,41.60
2023-05-05T08:12:57.076Z,41.90
2023-05-05T08:15:06.526Z,42.00
2023-05-05T08:17:13.784Z,42.30
2023-05-05T08:19:28.806Z,42.40
2023-05-05T08:21:37.680Z,42.80
2023-05-05T08:23:44.646Z,43.70
2023-05-05T08:25:51.474Z,43.60
2023-05-05T08:27:58.548Z,43.80
2023-05-05T08:30:07.599Z,43.70
2023-05-05T08:32:14.859Z,43.30
2023-05-05T08:34:21.836Z,43.30
2023-05-05T08:36:30.196Z,43.10
2023-05-05T08:38:37.328Z,42.90
2023-05-05T08:40:45.326Z,43.00
2023-05-05T08:42:52.354Z,41.70
2023-05-05T08:44:59.512Z,41.60
2023-05-05T08:47:11.376Z,41.30
2023-05-05T08:49:20.254Z,41.90
2023-05-05T08:51:33.980Z,42.80
2023-05-05T08:54:01.078Z,41.50
2023-05-05T08:56:08.726Z,40.50
2023-05-05T08:58:16.924Z,39.90
2023-05-05T09:00:24.928Z,39.20
2023-05-05T09:02:34.567Z,39.10
2023-05-05T09:04:41.899Z,39.30
2023-05-05T09:06:49.442Z,39.20
2023-05-05T09:08:58.932Z,39.40
2023-05-05T09:11:07.282Z,39.40
2023-05-05T09:13:14.475Z,39.00
2023-05-05T09:15:21.868Z,39.00
2023-05-05T09:17:29.268Z,38.90
2023-05-05T09:19:55.570Z,38.80
2023-05-05T09:22:02.655Z,38.80
2023-05-05T09:24:14.131Z,39.30
2023-05-05T09:26:20.906Z,39.30
2023-05-05T09:28:29.007Z,39.30
2023-05-05T09:30:36.166Z,39.40
2023-05-05T09:32:50.749Z,39.30
2023-05-05T09:35:06.033Z,38.70
2023-05-05T09:37:13.442Z,38.80
2023-05-05T09:39:22.628Z,39.00
2023-05-05T09:41:41.547Z,39.30
2023-05-05T09:44:04.048Z,39.30
2023-05-05T09:46:11.690Z,39.40
2023-05-05T09:48:29.046Z,39.60
2023-05-05T09:50:46.363Z,39.80
2023-05-05T09:53:00.178Z,39.80
2023-05-05T09:55:08.154Z,40.00
2023-05-05T09:57:29.816Z,40.20
2023-05-05T09:59:36.952Z,39.90
2023-05-05T10:01:44.787Z,40.30
2023-05-05T10:03:54.903Z,40.40
2023-05-05T10:06:05.660Z,40.60
2023-05-05T10:08:16.699Z,40.90
2023-05-05T10:10:23.560Z,41.10
2023-05-05T10:12:31.708Z,41.20
2023-05-05T10:14:40.377Z,41.30
2023-05-05T10:16:51.918Z,41.20
2023-05-05T10:18:59.552Z,41.20
2023-05-05T10:21:09.295Z,41.40
2023-05-05T10:23:27.590Z,41.60
2023-05-05T10:25:42.353Z,41.70
2023-05-05T10:27:53.467Z,41.80
2023-05-05T10:30:02.856Z,41.90
2023-05-05T10:32:40.783Z,41.70
2023-05-05T10:34:52.861Z,42.10
2023-05-05T10:37:03.264Z,42.20
2023-05-05T10:39:11.724Z,42.40
2023-05-05T10:41:21.622Z,42.70
2023-05-05T10:43:29.590Z,43.00
2023-05-05T10:45:36.609Z,43.20
2023-05-05T10:47:45.241Z,43.30
2023-05-05T10:49:58.796Z,43.40
2023-05-05T10:52:15.807Z,43.50
2023-05-05T10:54:31.414Z,43.30
2023-05-05T10:56:39.138Z,43.20
2023-05-05T10:58:59.057Z,43.30
2023-05-05T11:01:07.868Z,43.30
2023-05-05T11:03:25.086Z,43.40
2023-05-05T11:05:32.628Z,43.40
2023-05-05T11:07:41.506Z,43.60
2023-05-05T11:09:59.560Z,43.80
2023-05-05T11:12:07.753Z,44.00
2023-05-05T11:14:24.721Z,44.20
2023-05-05T11:16:48.902Z,44.20
2023-05-05T11:18:56.024Z,44.50
2023-05-05T11:21:19.387Z,44.70
2023-05-05T11:23:28.880Z,44.80
2023-05-05T11:25:52.381Z,45.00
2023-05-05T11:28:09.105Z,45.10
2023-05-05T11:30:17.959Z,45.20
2023-05-05T11:32:26.047Z,45.30
2023-05-05T11:34:33.103Z,45.30
2023-05-05T11:36:44.753Z,45.40
2023-05-05T11:38:59.638Z,45.50
2023-05-05T11:41:15.476Z,45.50
2023-05-05T11:43:23.520Z,45.80
2023-05-05T11:45:30.757Z,45.90
2023-05-05T11:47:37.918Z,45.90
2023-05-05T11:49:45.597Z,46.10
2023-05-05T11:52:00.378Z,46.50
2023-05-05T11:54:09.468Z,46.80
2023-05-05T11:56:19.944Z,47.40
2023-05-05T11:58:27.052Z,47.40
2023-05-05T12:00:38.998Z,47.50
2023-05-05T12:02:46.544Z,47.70
2023-05-05T12:04:53.945Z,47.60
2023-05-05T12:07:01.674Z,47.60
2023-05-05T12:09:10.382Z,47.50
2023-05-05T12:11:17.568Z,47.60
2023-05-05T12:13:24.705Z,48.00
2023-05-05T12:15:35.775Z,47.90
2023-05-05T12:17:45.872Z,47.70
2023-05-05T12:19:55.258Z,47.60
2023-05-05T12:22:02.389Z,47.70
2023-05-05T12:24:16.533Z,47.90
2023-05-05T12:26:30.372Z,47.50
2023-05-05T12:28:49.148Z,47.40
2023-05-05T12:31:02.415Z,47.40
2023-05-05T12:33:11.113Z,47.30
2023-05-05T12:35:18.304Z,47.30
2023-05-05T12:37:26.869Z,47.30
2023-05-05T12:39:40.801Z,47.50
2023-05-05T12:41:48.141Z,47.70
2023-05-05T12:43:59.546Z,47.90
2023-05-05T12:46:09.584Z,48.00
2023-05-05T12:48:28.678Z,48.10
2023-05-05T12:50:36.480Z,48.40
2023-05-05T12:52:47.239Z,48.50
2023-05-05T12:55:02.409Z,48.60
2023-05-05T12:57:15.687Z,48.60
2023-05-05T12:59:33.051Z,48.50
2023-05-05T13:01:40.819Z,48.60
2023-05-05T13:03:48.071Z,48.60
2023-05-05T13:05:54.761Z,48.60
2023-05-05T13:08:01.938Z,48.60
2023-05-05T13:10:14.542Z,48.60
2023-05-05T13:12:23.239Z,48.80
2023-05-05T13:14:31.671Z,48.90
2023-05-05T13:16:38.912Z,49.40
2023-05-05T13:18:49.581Z,49.60
2023-05-05T13:20:57.005Z,49.80
2023-05-05T13:23:04.533Z,50.10
2023-05-05T13:25:13.104Z,50.20
2023-05-05T13:27:20.234Z,50.30
2023-05-05T13:29:31.089Z,50.50
2023-05-05T13:31:38.934Z,50.70
2023-05-05T13:33:46.030Z,51.10
2023-05-05T13:35:53.345Z,51.20
2023-05-05T13:38:00.294Z,51.50
2023-05-05T13:40:08.346Z,51.80
2023-05-05T13:42:16.957Z,52.00
2023-05-05T13:44:24.754Z,52.30
2023-05-05T13:46:31.752Z,52.60
2023-05-05T13:48:39.011Z,52.60
2023-05-05T13:50:46.054Z,52.90
2023-05-05T13:52:53.373Z,53.00
2023-05-05T13:55:00.197Z,53.50
2023-05-05T13:57:08.930Z,53.80
2023-05-05T13:59:17.993Z,54.00
2023-05-05T14:01:25.449Z,54.10
2023-05-05T14:03:32.549Z,54.20
2023-05-05T14:05:43.531Z,54.40
2023-05-05T14:07:50.468Z,54.50
2023-05-05T14:09:57.797Z,54.60
2023-05-05T14:12:04.772Z,54.60
2023-05-05T14:14:12.361Z,54.60
2023-05-05T14:16:21.435Z,54.60
2023-05-05T14:18:29.337Z,54.60
2023-05-05T14:20:36.672Z,54.50
2023-05-05T14:22:44.831Z,54.60
2023-05-05T14:24:51.855Z,55.80
2023-05-05T14:26:59.242Z,56.40
2023-05-05T14:29:06.029Z,57.40
2023-05-05T14:31:13.463Z,57.80
2023-05-05T14:33:23.140Z,57.70
2023-05-05T14:35:30.219Z,58.40
2023-05-05T14:37:37.557Z,58.90
2023-05-05T14:39:44.975Z,58.60
2023-05-05T14:41:52.283Z,57.80
2023-05-05T14:44:00.234Z,57.40
2023-05-05T14:46:07.967Z,57.10
2023-05-05T14:48:15.368Z,57.90
2023-05-05T14:50:24.086Z,58.70
2023-05-05T14:52:31.204Z,59.30
2023-05-05T14:54:38.136Z,59.70
2023-05-05T14:56:45.389Z,59.10
2023-05-05T14:58:53.209Z,58.40
2023-05-05T15:01:01.471Z,58.10
2023-05-05T15:03:08.450Z,57.60
2023-05-05T15:05:15.597Z,57.20
2023-05-05T15:07:29.257Z,56.90
2023-05-05T15:09:36.286Z,56.80
2023-05-05T15:11:44.969Z,56.50
2023-05-05T15:13:52.304Z,56.50
2023-05-05T15:15:59.018Z,56.50
2023-05-05T15:18:06.446Z,56.40
2023-05-05T15:20:14.187Z,56.30
2023-05-05T15:22:23.631Z,56.30
2023-05-05T15:24:30.937Z,56.20
2023-05-05T15:26:38.096Z,56.30
2023-05-05T15:28:45.168Z,56.20
2023-05-05T15:30:52.196Z,56.20
2023-05-05T15:32:59.644Z,56.10
2023-05-05T15:35:07.249Z,56.20
2023-05-05T15:37:14.818Z,56.20
2023-05-05T15:39:23.386Z,56.30
2023-05-05T15:41:31.333Z,56.40
2023-05-05T15:43:38.460Z,56.50
2023-05-05T15:45:45.537Z,56.50
2023-05-05T15:47:53.772Z,56.60
2023-05-05T15:50:01.040Z,56.50
2023-05-05T15:52:08.103Z,56.50
2023-05-05T15:54:15.187Z,56.60
2023-05-05T15:56:24.573Z,56.60
2023-05-05T15:58:31.851Z,56.80
2023-05-05T16:00:38.828Z,56.90
2023-05-05T16:02:46.138Z,56.90
2023-05-05T16:04:53.192Z,56.90
2023-05-05T16:07:00.743Z,57.00
2023-05-05T16:09:07.920Z,57.00
2023-05-05T16:11:15.197Z,57.00
2023-05-05T16:13:23.877Z,57.20
2023-05-05T16:15:31.100Z,57.20
2023-05-05T16:17:38.122Z,57.30
2023-05-05T16:19:46.024Z,57.40
2023-05-05T16:21:57.658Z,57.50
2023-05-05T16:24:04.763Z,57.60
2023-05-05T16:26:11.876Z,57.60
2023-05-05T16:28:19.615Z,57.50
2023-05-05T16:30:28.279Z,57.50
2023-05-05T16:32:35.624Z,57.60
2023-05-05T16:34:42.694Z,57.60
2023-05-05T16:36:49.979Z,57.50
2023-05-05T16:38:57.110Z,57.60
2023-05-05T16:41:04.414Z,57.60
2023-05-05T16:43:11.336Z,57.70
2023-05-05T16:45:18.611Z,57.90
2023-05-05T16:47:28.288Z,58.00
2023-05-05T16:49:35.542Z,57.90
2023-05-05T16:51:42.296Z,57.80
2023-05-05T16:53:49.377Z,57.90
2023-05-05T16:55:56.610Z,57.80
2023-05-05T16:58:06.666Z,57.80
2023-05-05T17:00:14.301Z,57.80
2023-05-05T17:02:21.378Z,57.90
2023-05-05T17:04:30.100Z,57.80
2023-05-05T17:06:37.604Z,57.80
2023-05-05T17:08:44.566Z,57.80
2023-05-05T17:10:51.641Z,57.90
2023-05-05T17:12:58.468Z,58.00
2023-05-05T17:15:05.753Z,58.10
2023-05-05T17:17:13.390Z,58.10
2023-05-05T17:19:20.183Z,58.00
2023-05-05T17:21:30.267Z,58.10
2023-05-05T17:23:37.135Z,58.10
2023-05-05T17:25:44.374Z,58.20
2023-05-05T17:27:51.533Z,58.40
2023-05-05T17:29:58.535Z,58.40
2023-05-05T17:32:05.522Z,58.50
2023-05-05T17:34:12.895Z,58.30
2023-05-05T17:36:19.834Z,58.20
2023-05-05T17:38:28.665Z,58.20
2023-05-05T17:40:35.667Z,58.20
2023-05-05T17:42:43.002Z,58.10
2023-05-05T17:44:49.823Z,58.10
2023-05-05T17:46:56.851Z,58.10
2023-05-05T17:49:03.911Z,58.00
2023-05-05T17:51:11.198Z,58.10
2023-05-05T17:53:18.141Z,57.90
2023-05-05T17:55:27.167Z,57.90
2023-05-05T17:57:34.196Z,57.70
2023-05-05T17:59:41.478Z,57.60
2023-05-05T18:01:48.303Z,57.70
2023-05-05T18:03:55.681Z,57.80
2023-05-05T18:06:03.306Z,57.90
2023-05-05T18:08:10.418Z,57.90
2023-05-05T18:10:17.699Z,57.80
2023-05-05T18:12:26.882Z,57.70
2023-05-05T18:14:34.519Z,57.80
2023-05-05T18:16:44.823Z,57.80
2023-05-05T18:18:51.727Z,57.90
2023-05-05T18:20:58.553Z,57.90
2023-05-05T18:23:05.655Z,57.90
2023-05-05T18:25:13.436Z,57.90
2023-05-05T18:27:20.890Z,58.00
2023-05-05T18:29:29.951Z,58.00
2023-05-05T18:31:36.965Z,58.10
2023-05-05T18:33:45.129Z,58.20
2023-05-05T18:35:54.165Z,58.30
2023-05-05T18:38:01.399Z,58.40
2023-05-05T18:40:10.958Z,58.60
2023-05-05T18:42:17.812Z,58.60
2023-05-05T18:44:25.061Z,58.70
2023-05-05T18:46:34.032Z,58.80
2023-05-05T18:48:44.238Z,58.70
2023-05-05T18:50:52.376Z,58.70
2023-05-05T18:52:59.659Z,58.70
2023-05-05T18:55:06.805Z,58.60
2023-05-05T18:57:14.122Z,58.60
2023-05-05T18:59:21.151Z,58.80
2023-05-05T19:01:30.491Z,59.00
2023-05-05T19:03:39.278Z,59.00
2023-05-05T19:05:46.743Z,59.00
2023-05-05T19:07:53.720Z,59.20
2023-05-05T19:10:01.002Z,59.20
2023-05-05T19:12:18.941Z,59.20
2023-05-05T19:14:26.577Z,59.20
2023-05-05T19:16:33.525Z,59.10
2023-05-05T19:18:42.064Z,59.20
2023-05-05T19:20:49.043Z,59.40
2023-05-05T19:22:56.381Z,59.30
2023-05-05T19:25:03.570Z,59.40
2023-05-05T19:27:16.432Z,59.30
2023-05-05T19:29:24.064Z,59.20
2023-05-05T19:31:32.090Z,59.20
2023-05-05T19:33:43.345Z,59.30
2023-05-05T19:35:50.219Z,59.20
2023-05-05T19:37:58.272Z,59.20
2023-05-05T19:40:05.132Z,59.30
2023-05-05T19:42:12.480Z,59.40
2023-05-05T19:44:19.815Z,59.50
2023-05-05T19:46:27.690Z,59.50
2023-05-05T19:48:34.535Z,59.50
2023-05-05T19:50:43.673Z,59.60
2023-05-05T19:52:50.658Z,59.70
2023-05-05T19:54:58.796Z,59.70
2023-05-05T19:57:06.179Z,59.70
2023-05-05T19:59:13.567Z,59.70
2023-05-05T20:01:20.543Z,59.80
2023-05-05T20:03:27.904Z,60.00
2023-05-05T20:05:34.716Z,60.00
2023-05-05T20:07:44.299Z,60.10
2023-05-05T20:09:51.368Z,60.20
2023-05-05T20:11:59.328Z,60.30
2023-05-05T20:14:06.202Z,60.50
2023-05-05T20:16:13.402Z,60.70
2023-05-05T20:18:20.559Z,60.90
2023-05-05T20:20:27.686Z,60.90
2023-05-05T20:22:34.610Z,60.90
2023-05-05T20:24:43.381Z,61.10
2023-05-05T20:26:50.409Z,60.90
2023-05-05T20:28:57.526Z,60.90
2023-05-05T20:31:04.586Z,60.90
2023-05-05T20:33:12.228Z,61.00
2023-05-05T20:35:31.103Z,60.90
2023-05-05T20:37:38.455Z,61.10
2023-05-05T20:39:48.248Z,61.10
2023-05-05T20:41:55.592Z,61.20
2023-05-05T20:44:02.421Z,61.20
2023-05-05T20:46:13.244Z,61.20
2023-05-05T20:48:20.406Z,61.20
2023-05-05T20:50:27.636Z,61.20
2023-05-05T20:52:36.304Z,61.20
2023-05-05T20:54:43.383Z,61.40
2023-05-05T20:56:51.999Z,61.40
2023-05-05T20:58:59.438Z,61.30
2023-05-05T21:01:06.603Z,61.20
2023-05-05T21:03:13.720Z,61.20
2023-05-05T21:05:20.518Z,61.50
2023-05-05T21:07:27.649Z,61.60
2023-05-05T21:09:36.214Z,61.40
2023-05-05T21:11:43.445Z,61.50
2023-05-05T21:13:52.219Z,61.50
2023-05-05T21:15:59.293Z,61.60
2023-05-05T21:18:06.083Z,61.60
2023-05-05T21:20:14.370Z,61.50
2023-05-05T21:22:21.501Z,61.50
2023-05-05T21:24:29.100Z,61.80
2023-05-05T21:26:36.076Z,61.80
2023-05-05T21:28:43.507Z,61.90
2023-05-05T21:33:02.917Z,62.00
2023-05-05T21:35:13.050Z,62.10
2023-05-05T21:37:20.633Z,62.20
2023-05-05T21:39:27.711Z,62.30
2023-05-05T21:41:34.945Z,62.30
2023-05-05T21:43:41.772Z,62.30
2023-05-05T21:45:50.805Z,62.40
2023-05-05T21:47:57.733Z,62.60
2023-05-05T21:50:04.824Z,62.60
2023-05-05T21:52:11.883Z,62.50
2023-05-05T21:54:19.222Z,62.60
2023-05-05T21:56:26.201Z,62.70
2023-05-05T21:58:33.525Z,62.60
2023-05-05T22:00:40.453Z,62.80
2023-05-05T22:02:49.546Z,62.90
2023-05-05T22:04:56.674Z,63.20
2023-05-05T22:07:03.896Z,63.20
2023-05-05T22:09:10.651Z,63.30
2023-05-05T22:11:18.075Z,63.40
2023-05-05T22:13:24.833Z,63.50
2023-05-05T22:15:42.658Z,63.70
2023-05-05T22:17:55.220Z,63.70
2023-05-05T22:20:02.454Z,63.70
2023-05-05T22:22:09.473Z,63.80
2023-05-05T22:24:16.907Z,63.80
2023-05-05T22:26:26.045Z,64.00
2023-05-05T22:28:33.317Z,64.10
2023-05-05T22:30:40.648Z,64.00
2023-05-05T22:32:48.011Z,64.00
2023-05-05T22:34:56.605Z,63.90
2023-05-05T22:37:04.349Z,63.80
2023-05-05T22:39:11.374Z,64.10
2023-05-05T22:41:18.648Z,64.30
2023-05-05T22:43:25.787Z,64.30
2023-05-05T22:45:32.610Z,64.50
2023-05-05T22:47:39.869Z,64.70
2023-05-05T22:49:46.980Z,64.70
2023-05-05T22:51:56.258Z,64.60
2023-05-05T22:54:03.405Z,64.60
2023-05-05T22:56:10.927Z,64.60
2023-05-05T22:58:17.963Z,64.60
2023-05-05T23:00:25.395Z,64.80
2023-05-05T23:02:32.721Z,64.90
2023-05-05T23:04:40.047Z,65.00
2023-05-05T23:06:47.096Z,65.10
2023-05-05T23:08:56.016Z,65.30
2023-05-05T23:11:03.298Z,65.30
2023-05-05T23:13:10.347Z,65.30
2023-05-05T23:15:17.354Z,65.40
2023-05-05T23:17:24.496Z,65.80
2023-05-05T23:19:33.358Z,65.90
2023-05-05T23:21:51.997Z,66.00
2023-05-05T23:24:01.970Z,66.50
2023-05-05T23:26:09.188Z,66.80
2023-05-05T23:28:16.062Z,66.90
2023-05-05T23:30:23.400Z,66.80
2023-05-05T23:32:30.497Z,66.70
2023-05-05T23:34:37.812Z,66.50
2023-05-05T23:36:44.899Z,66.60
2023-05-05T23:38:52.078Z,66.50
2023-05-05T23:41:03.360Z,66.80
2023-05-05T23:43:10.686Z,67.20
2023-05-05T23:45:19.235Z,67.20
2023-05-05T23:47:26.769Z,66.90
2023-05-05T23:49:33.926Z,66.60
2023-05-05T23:51:41.446Z,66.60
2023-05-05T23:53:48.590Z,66.40
2023-05-05T23:55:55.872Z,66.50
